createdAt,value
2019-01-29T00:00:35.891Z,10.50
2019-01-29T00:03:06.695Z,10.20
2019-01-29T00:05:35.243Z,10.83
2019-01-29T00:08:03.677Z,11.27
2019-01-29T00:10:32.509Z,10.23
2019-01-29T00:13:01.419Z,10.13
2019-01-29T00:15:29.704Z,9.83
2019-01-29T00:17:58.223Z,10.67
2019-01-29T00:20:27.429Z,10.60
2019-01-29T00:22:56.230Z,10.70
2019-01-29T00:25:24.866Z,10.30
2019-01-29T00:27:54.870Z,10.30
2019-01-29T00:30:24.635Z,9.90
2019-01-29T00:32:53.541Z,9.57
2019-01-29T00:35:22.119Z,10.27
2019-01-29T00:37:50.639Z,10.33
2019-01-29T00:40:18.891Z,10.77
2019-01-29T00:42:48.208Z,10.73
2019-01-29T00:45:17.424Z,11.03
2019-01-29T00:47:46.067Z,11.23
2019-01-29T00:50:14.694Z,11.60
2019-01-29T00:52:44.279Z,10.77
2019-01-29T00:55:14.159Z,12.93
2019-01-29T00:57:42.893Z,12.07
2019-01-29T01:00:18.976Z,12.57
2019-01-29T01:02:47.348Z,11.73
2019-01-29T01:05:16.606Z,12.23
2019-01-29T01:07:45.348Z,12.33
2019-01-29T01:10:16.228Z,12.87
2019-01-29T01:12:44.412Z,12.20
2019-01-29T01:15:13.414Z,12.20
2019-01-29T01:17:41.552Z,12.07
2019-01-29T01:20:13.153Z,12.37
2019-01-29T01:22:50.408Z,13.27
2019-01-29T01:25:12.986Z,12.57
2019-01-29T01:27:41.421Z,12.67
2019-01-29T01:30:13.117Z,12.50
2019-01-29T01:32:41.287Z,13.67
2019-01-29T01:35:11.003Z,13.07
2019-01-29T01:37:39.179Z,13.00
2019-01-29T01:40:11.341Z,14.00
2019-01-29T01:42:39.589Z,13.70
2019-01-29T01:45:08.925Z,13.67
2019-01-29T01:47:37.912Z,14.17
2019-01-29T01:50:07.599Z,13.67
2019-01-29T01:52:36.163Z,14.53
2019-01-29T01:55:06.343Z,15.70
2019-01-29T01:57:34.860Z,15.10
2019-01-29T02:00:03.159Z,16.30
2019-01-29T02:02:32.432Z,15.30
2019-01-29T02:05:00.546Z,15.20
2019-01-29T02:07:28.861Z,15.53
2019-01-29T02:09:58.220Z,16.37
2019-01-29T02:12:26.511Z,16.70
2019-01-29T02:14:56.119Z,15.90
2019-01-29T02:17:24.647Z,16.17
2019-01-29T02:19:52.812Z,16.53
2019-01-29T02:22:21.163Z,15.47
2019-01-29T02:24:50.303Z,15.47
2019-01-29T02:27:18.621Z,16.03
2019-01-29T02:29:46.784Z,17.23
2019-01-29T02:32:14.928Z,15.27
2019-01-29T02:34:44.058Z,15.63
2019-01-29T02:37:12.371Z,15.13
2019-01-29T02:39:40.597Z,15.30
2019-01-29T02:42:09.718Z,15.70
2019-01-29T02:44:38.510Z,15.13
2019-01-29T02:47:07.141Z,15.37
2019-01-29T02:49:35.360Z,15.17
2019-01-29T02:52:03.788Z,14.90
2019-01-29T02:54:32.295Z,15.40
2019-01-29T02:57:00.592Z,16.63
2019-01-29T02:59:29.074Z,16.33
2019-01-29T03:01:57.885Z,17.30
2019-01-29T03:04:26.010Z,16.47
2019-01-29T03:06:54.492Z,16.40
2019-01-29T03:09:23.893Z,16.03
2019-01-29T03:11:52.414Z,17.20
2019-01-29T03:14:20.470Z,16.00
2019-01-29T03:16:48.820Z,17.87
2019-01-29T03:19:16.995Z,19.23
2019-01-29T03:21:45.606Z,18.10
2019-01-29T03:24:13.943Z,17.43
2019-01-29T03:26:42.888Z,19.13
2019-01-29T03:29:11.051Z,19.00
2019-01-29T03:31:41.010Z,20.70
2019-01-29T03:34:09.244Z,20.00
2019-01-29T03:36:37.518Z,19.17
2019-01-29T03:39:08.011Z,20.70
2019-01-29T03:41:36.727Z,23.30
2019-01-29T03:44:05.042Z,22.90
2019-01-29T03:46:33.343Z,23.27
2019-01-29T03:49:01.612Z,24.83
2019-01-29T03:51:29.835Z,24.40
2019-01-29T03:53:58.170Z,25.63
2019-01-29T03:56:26.802Z,25.93
2019-01-29T03:58:54.889Z,26.53
2019-01-29T04:04:25.992Z,23.43
2019-01-29T04:07:13.065Z,24.77
2019-01-29T04:10:00.264Z,25.97
2019-01-29T04:12:47.495Z,25.83
2019-01-29T04:15:34.387Z,25.60
2019-01-29T04:18:21.002Z,24.77
2019-01-29T04:21:08.160Z,22.90
2019-01-29T04:23:54.535Z,22.73
2019-01-29T04:26:41.348Z,22.77
2019-01-29T04:29:28.522Z,23.07
2019-01-29T04:31:56.853Z,22.30
2019-01-29T04:34:25.028Z,23.07
2019-01-29T04:36:53.180Z,22.77
2019-01-29T04:39:22.079Z,24.83
2019-01-29T04:41:50.520Z,21.93
2019-01-29T04:44:18.617Z,22.17
2019-01-29T04:46:47.103Z,22.20
2019-01-29T04:49:15.985Z,22.63
2019-01-29T04:51:44.069Z,24.03
2019-01-29T04:54:12.423Z,23.53
2019-01-29T04:56:40.765Z,24.30
2019-01-29T04:59:09.324Z,22.57
2019-01-29T05:01:37.988Z,24.10
2019-01-29T05:04:06.310Z,22.87
2019-01-29T05:06:37.626Z,20.97
2019-01-29T05:09:08.201Z,22.43
2019-01-29T05:11:36.490Z,23.10
2019-01-29T05:14:05.023Z,23.50
2019-01-29T05:16:33.084Z,23.10
2019-01-29T05:19:01.535Z,23.67
2019-01-29T05:21:31.778Z,23.60
2019-01-29T05:24:06.688Z,23.47
2019-01-29T05:26:31.182Z,25.23
2019-01-29T05:28:59.282Z,23.97
2019-01-29T05:31:28.373Z,22.57
2019-01-29T05:33:56.964Z,22.10
2019-01-29T05:36:25.194Z,25.27
2019-01-29T05:38:53.184Z,24.03
2019-01-29T05:41:22.127Z,22.87
2019-01-29T05:43:50.951Z,22.90
2019-01-29T05:46:19.237Z,23.87
2019-01-29T05:48:48.154Z,23.53
2019-01-29T05:51:16.526Z,24.67
2019-01-29T05:53:46.311Z,26.33
2019-01-29T05:56:14.507Z,25.00
2019-01-29T05:58:42.636Z,25.70
2019-01-29T06:01:11.672Z,26.50
2019-01-29T06:03:42.931Z,27.47
2019-01-29T06:06:11.214Z,28.37
2019-01-29T06:08:40.373Z,28.03
2019-01-29T06:11:08.539Z,29.80
2019-01-29T06:13:36.739Z,31.83
2019-01-29T06:16:05.091Z,30.03
2019-01-29T06:18:33.100Z,34.00
2019-01-29T06:21:01.250Z,34.63
2019-01-29T06:23:30.856Z,35.13
2019-01-29T06:25:59.042Z,37.63
2019-01-29T06:28:27.277Z,38.10
2019-01-29T06:30:55.307Z,40.70
2019-01-29T06:33:23.965Z,42.70
2019-01-29T06:35:52.865Z,40.00
2019-01-29T06:38:20.843Z,40.93
2019-01-29T06:40:49.052Z,42.50
2019-01-29T06:43:17.736Z,43.83
2019-01-29T06:45:45.961Z,44.60
2019-01-29T06:48:14.619Z,48.90
2019-01-29T06:50:42.684Z,47.20
2019-01-29T06:53:14.328Z,47.70
2019-01-29T06:55:42.559Z,51.23
2019-01-29T06:58:10.810Z,59.07
2019-01-29T07:00:39.619Z,51.03
2019-01-29T07:03:08.505Z,49.53
2019-01-29T07:05:36.694Z,49.10
2019-01-29T07:08:05.709Z,49.50
2019-01-29T07:10:34.121Z,48.03
2019-01-29T07:13:02.749Z,46.23
2019-01-29T07:15:49.456Z,56.77
2019-01-29T07:18:40.262Z,43.13
2019-01-29T07:21:09.613Z,47.93
2019-01-29T07:23:38.144Z,47.37
2019-01-29T07:26:06.862Z,41.67
2019-01-29T07:28:35.729Z,47.17
2019-01-29T07:31:06.553Z,45.43
2019-01-29T07:33:35.529Z,43.37
2019-01-29T07:36:04.075Z,43.17
2019-01-29T07:38:32.169Z,43.80
2019-01-29T07:41:00.363Z,41.13
2019-01-29T07:43:28.648Z,41.30
2019-01-29T07:45:57.386Z,43.27
2019-01-29T07:48:27.234Z,39.43
2019-01-29T07:50:55.838Z,42.77
2019-01-29T07:53:24.344Z,42.23
2019-01-29T07:55:53.356Z,41.63
2019-01-29T07:58:21.688Z,42.47
2019-01-29T08:00:50.237Z,41.27
2019-01-29T08:03:18.540Z,38.87
2019-01-29T08:05:46.824Z,36.60
2019-01-29T08:08:15.144Z,36.80
2019-01-29T08:10:44.449Z,35.07
2019-01-29T08:13:13.505Z,35.60
2019-01-29T08:15:41.809Z,35.30
2019-01-29T08:18:10.002Z,37.00
2019-01-29T08:20:40.232Z,36.40
2019-01-29T08:23:08.853Z,35.67
2019-01-29T08:25:37.761Z,38.07
2019-01-29T08:28:06.840Z,37.33
2019-01-29T08:30:37.145Z,37.47
2019-01-29T08:33:06.117Z,41.30
2019-01-29T08:35:34.613Z,40.50
2019-01-29T08:38:02.927Z,42.40
2019-01-29T08:40:34.122Z,41.20
2019-01-29T08:43:03.446Z,39.87
2019-01-29T08:45:31.936Z,39.37
2019-01-29T08:48:00.282Z,39.37
2019-01-29T08:50:29.303Z,38.47
2019-01-29T08:52:58.763Z,39.47
2019-01-29T08:55:27.147Z,37.50
2019-01-29T08:57:55.628Z,35.80
2019-01-29T09:00:24.202Z,35.27
2019-01-29T09:02:52.401Z,37.73
2019-01-29T09:05:21.156Z,36.50
2019-01-29T09:07:49.287Z,36.03
2019-01-29T09:10:17.768Z,39.40
2019-01-29T09:12:45.945Z,37.70
2019-01-29T09:15:15.359Z,35.63
2019-01-29T09:17:43.555Z,37.33
2019-01-29T09:20:12.887Z,35.17
2019-01-29T09:22:41.303Z,35.70
2019-01-29T09:25:19.109Z,39.43
2019-01-29T09:27:41.617Z,47.30
2019-01-29T09:30:13.138Z,39.90
2019-01-29T09:32:41.836Z,40.23
2019-01-29T09:35:10.179Z,51.97
2019-01-29T09:37:38.637Z,52.27
2019-01-29T09:40:11.499Z,38.73
2019-01-29T09:42:40.559Z,36.80
2019-01-29T09:45:10.848Z,43.33
2019-01-29T09:47:39.688Z,43.00
2019-01-29T09:50:08.675Z,35.67
2019-01-29T09:52:36.932Z,36.97
2019-01-29T09:55:08.145Z,39.23
2019-01-29T09:57:38.437Z,34.87
2019-01-29T10:00:10.192Z,32.83
2019-01-29T10:02:38.369Z,33.70
2019-01-29T10:05:07.293Z,33.23
2019-01-29T10:07:35.805Z,30.67
2019-01-29T10:10:04.579Z,33.07
2019-01-29T10:12:32.801Z,30.70
2019-01-29T10:15:01.521Z,32.30
2019-01-29T10:17:30.101Z,32.93
2019-01-29T10:20:02.809Z,30.97
2019-01-29T10:22:28.545Z,30.20
2019-01-29T10:24:57.089Z,30.33
2019-01-29T10:27:25.212Z,30.83
2019-01-29T10:29:54.822Z,31.70
2019-01-29T10:32:27.424Z,34.30
2019-01-29T10:34:58.693Z,31.87
2019-01-29T10:37:26.933Z,32.93
2019-01-29T10:39:55.316Z,32.07
2019-01-29T10:42:23.619Z,32.47
2019-01-29T10:44:51.826Z,32.67
2019-01-29T10:47:20.172Z,32.83
2019-01-29T10:49:50.378Z,31.83
2019-01-29T10:52:18.683Z,31.77
2019-01-29T10:54:46.802Z,29.53
2019-01-29T10:57:15.122Z,32.20
2019-01-29T10:59:45.656Z,27.23
2019-01-29T11:02:14.007Z,30.97
2019-01-29T11:04:42.573Z,27.77
2019-01-29T11:07:12.223Z,25.43
2019-01-29T11:09:41.487Z,25.63
2019-01-29T11:12:11.337Z,27.67
2019-01-29T11:14:39.687Z,26.27
2019-01-29T11:17:08.262Z,28.27
2019-01-29T11:19:36.560Z,27.87
2019-01-29T11:22:06.050Z,27.87
2019-01-29T11:24:34.644Z,32.20
2019-01-29T11:27:03.028Z,27.10
2019-01-29T11:29:31.702Z,27.37
2019-01-29T11:32:03.712Z,24.03
2019-01-29T11:34:31.882Z,24.37
2019-01-29T11:37:00.415Z,23.63
2019-01-29T11:39:28.705Z,25.03
2019-01-29T11:42:00.901Z,23.53
2019-01-29T11:44:29.069Z,23.27
2019-01-29T11:46:57.288Z,22.53
2019-01-29T11:49:25.726Z,22.20
2019-01-29T11:51:54.237Z,25.20
2019-01-29T11:54:22.623Z,20.73
2019-01-29T11:56:51.594Z,20.07
2019-01-29T11:59:19.825Z,15.37
2019-01-29T12:01:48.489Z,13.83
2019-01-29T12:04:16.708Z,14.40
2019-01-29T12:06:45.898Z,16.43
2019-01-29T12:09:14.265Z,14.13
2019-01-29T12:11:42.483Z,16.47
2019-01-29T12:14:10.753Z,13.63
2019-01-29T12:16:39.128Z,15.03
2019-01-29T12:19:07.889Z,13.97
2019-01-29T12:21:36.117Z,15.83
2019-01-29T12:24:04.322Z,14.37
2019-01-29T12:26:35.042Z,12.93
2019-01-29T12:29:03.622Z,11.23
2019-01-29T12:31:32.232Z,11.80
2019-01-29T12:34:00.413Z,11.97
2019-01-29T12:36:28.650Z,12.10
2019-01-29T12:38:57.059Z,11.07
2019-01-29T12:41:25.798Z,11.40
2019-01-29T12:43:55.025Z,12.23
2019-01-29T12:46:23.527Z,12.87
2019-01-29T12:48:52.738Z,12.97
2019-01-29T12:51:30.710Z,13.13
2019-01-29T12:53:59.069Z,12.33
2019-01-29T12:56:28.380Z,12.50
2019-01-29T12:58:56.479Z,11.77
2019-01-29T13:01:25.704Z,11.33
2019-01-29T13:03:54.338Z,11.03
2019-01-29T13:06:25.806Z,10.80
2019-01-29T13:08:56.924Z,10.87
2019-01-29T13:11:25.139Z,10.47
2019-01-29T13:13:53.584Z,10.07
2019-01-29T13:16:21.690Z,10.53
2019-01-29T13:18:50.837Z,9.30
2019-01-29T13:21:19.337Z,10.47
2019-01-29T13:23:47.674Z,9.50
2019-01-29T13:26:16.080Z,9.47
2019-01-29T13:28:47.786Z,11.23
2019-01-29T13:31:16.982Z,12.83
2019-01-29T13:33:45.507Z,23.40
2019-01-29T13:36:13.513Z,13.03
2019-01-29T13:38:42.138Z,13.77
2019-01-29T13:41:11.005Z,12.80
2019-01-29T13:43:39.958Z,10.40
2019-01-29T13:46:08.403Z,12.60
2019-01-29T13:48:40.042Z,12.03
2019-01-29T13:51:08.893Z,12.77
2019-01-29T13:53:42.519Z,12.30
2019-01-29T13:56:11.198Z,15.73
2019-01-29T13:58:46.442Z,12.87
2019-01-29T14:01:16.660Z,13.13
2019-01-29T14:03:45.438Z,13.67
2019-01-29T14:06:13.917Z,13.33
2019-01-29T14:08:44.485Z,15.33
2019-01-29T14:11:13.424Z,14.33
2019-01-29T14:13:43.968Z,12.87
2019-01-29T14:16:13.664Z,13.37
2019-01-29T14:18:42.281Z,12.33
2019-01-29T14:21:10.552Z,13.57
2019-01-29T14:23:38.825Z,13.00
2019-01-29T14:26:07.927Z,13.20
2019-01-29T14:28:36.689Z,14.93
2019-01-29T14:31:09.201Z,12.60
2019-01-29T14:33:38.255Z,14.53
2019-01-29T14:36:16.232Z,14.07
2019-01-29T14:39:12.217Z,13.67
2019-01-29T14:41:43.377Z,12.23
2019-01-29T14:44:27.020Z,13.20
2019-01-29T14:46:56.796Z,11.93
2019-01-29T14:49:29.993Z,11.57
2019-01-29T14:52:00.028Z,12.20
2019-01-29T14:54:28.374Z,10.47
2019-01-29T14:56:57.420Z,10.57
2019-01-29T14:59:25.854Z,12.43
2019-01-29T15:01:54.016Z,9.70
2019-01-29T15:04:22.541Z,7.57
2019-01-29T15:06:51.492Z,7.23
2019-01-29T15:09:20.158Z,7.33
2019-01-29T15:11:49.363Z,6.70
2019-01-29T15:14:17.834Z,7.13
2019-01-29T15:17:05.727Z,6.47
2019-01-29T15:19:34.881Z,7.03
2019-01-29T15:22:07.011Z,6.77
2019-01-29T15:24:35.970Z,6.17
2019-01-29T15:27:06.084Z,6.73
2019-01-29T15:29:44.269Z,6.00
2019-01-29T15:32:12.620Z,6.80
2019-01-29T15:34:42.029Z,6.37
2019-01-29T15:37:10.878Z,8.50
2019-01-29T15:39:39.046Z,7.70
2019-01-29T15:42:07.308Z,8.10
2019-01-29T15:44:35.891Z,7.03
2019-01-29T15:47:06.300Z,6.30
2019-01-29T15:49:35.227Z,6.60
2019-01-29T15:52:03.779Z,6.23
2019-01-29T15:54:32.011Z,5.97
2019-01-29T15:57:02.443Z,6.60
2019-01-29T15:59:31.058Z,5.77
2019-01-29T16:01:59.473Z,7.47
2019-01-29T16:04:28.508Z,6.30
2019-01-29T16:06:56.481Z,5.60
2019-01-29T16:09:24.723Z,5.50
2019-01-29T16:11:54.471Z,6.17
2019-01-29T16:14:22.394Z,5.87
2019-01-29T16:16:50.863Z,6.10
2019-01-29T16:19:20.400Z,6.20
2019-01-29T16:21:49.221Z,6.13
2019-01-29T16:24:17.560Z,6.17
2019-01-29T16:26:45.792Z,7.57
2019-01-29T16:29:14.811Z,5.27
2019-01-29T16:31:43.463Z,5.70
2019-01-29T16:34:11.841Z,6.00
2019-01-29T16:36:40.152Z,5.47
2019-01-29T16:39:09.559Z,7.00
2019-01-29T16:41:37.994Z,7.67
2019-01-29T16:44:07.026Z,7.73
2019-01-29T16:46:35.312Z,5.77
2019-01-29T16:49:04.433Z,6.63
2019-01-29T16:51:41.869Z,6.97
2019-01-29T16:54:04.460Z,6.00
2019-01-29T16:56:32.658Z,6.60
2019-01-29T16:59:01.345Z,6.40
2019-01-29T17:01:30.813Z,6.93
2019-01-29T17:03:59.049Z,9.03
2019-01-29T17:06:29.401Z,7.50
2019-01-29T17:08:58.285Z,7.17
2019-01-29T17:11:26.352Z,7.20
2019-01-29T17:13:54.941Z,7.00
2019-01-29T17:16:24.787Z,5.70
2019-01-29T17:18:53.236Z,6.03
2019-01-29T17:21:21.475Z,6.50
2019-01-29T17:23:50.405Z,6.17
2019-01-29T17:26:19.005Z,5.80
2019-01-29T17:28:47.433Z,6.47
2019-01-29T17:31:16.568Z,6.17
2019-01-29T17:33:45.162Z,7.27
2019-01-29T17:36:14.004Z,6.47
2019-01-29T17:38:44.665Z,6.33
2019-01-29T17:41:13.262Z,6.83
2019-01-29T17:43:42.708Z,7.60
2019-01-29T17:46:13.785Z,7.63
2019-01-29T17:48:43.520Z,6.60
2019-01-29T17:51:12.507Z,6.37
2019-01-29T17:53:40.771Z,6.63
2019-01-29T17:56:09.765Z,6.60
2019-01-29T17:58:39.517Z,6.63
2019-01-29T18:01:08.708Z,7.87
2019-01-29T18:03:38.823Z,6.97
2019-01-29T18:06:09.836Z,8.17
2019-01-29T18:08:49.499Z,6.43
2019-01-29T18:11:09.459Z,6.87
2019-01-29T18:13:37.625Z,6.73
2019-01-29T18:16:06.094Z,6.83
2019-01-29T18:18:34.706Z,7.27
2019-01-29T18:21:02.951Z,6.47
2019-01-29T18:23:30.856Z,7.57
2019-01-29T18:25:59.132Z,6.10
2019-01-29T18:28:27.984Z,7.17
2019-01-29T18:30:56.088Z,6.47
2019-01-29T18:33:24.358Z,7.23
2019-01-29T18:35:53.309Z,6.63
2019-01-29T18:38:22.009Z,7.10
2019-01-29T18:40:53.012Z,7.33
2019-01-29T18:43:21.556Z,6.43
2019-01-29T18:45:50.091Z,7.37
2019-01-29T18:48:19.547Z,6.93
2019-01-29T18:50:48.231Z,6.73
2019-01-29T18:53:18.653Z,7.53
2019-01-29T18:55:46.922Z,9.13
2019-01-29T18:58:15.446Z,7.73
2019-01-29T19:00:54.016Z,8.00
2019-01-29T19:03:18.185Z,9.87
2019-01-29T19:05:49.867Z,8.43
2019-01-29T19:08:19.471Z,7.33
2019-01-29T19:10:51.210Z,6.67
2019-01-29T19:13:19.648Z,7.40
2019-01-29T19:15:48.458Z,7.00
2019-01-29T19:18:17.402Z,7.40
2019-01-29T19:20:46.938Z,7.00
2019-01-29T19:23:15.127Z,6.87
2019-01-29T19:25:43.653Z,5.60
2019-01-29T19:28:21.437Z,6.37
2019-01-29T19:30:43.124Z,6.60
2019-01-29T19:33:11.342Z,6.57
2019-01-29T19:35:40.344Z,5.80
2019-01-29T19:38:09.008Z,6.30
2019-01-29T19:40:37.504Z,7.13
2019-01-29T19:43:05.828Z,6.67
2019-01-29T19:45:34.639Z,6.80
2019-01-29T19:48:04.964Z,6.77
2019-01-29T19:50:33.269Z,7.87
2019-01-29T19:53:02.174Z,6.07
2019-01-29T19:55:31.658Z,6.10
2019-01-29T19:58:08.677Z,6.17
2019-01-29T20:00:32.905Z,5.57
2019-01-29T20:03:01.365Z,7.00
2019-01-29T20:05:31.206Z,10.93
2019-01-29T20:07:59.737Z,6.37
2019-01-29T20:10:28.132Z,6.53
2019-01-29T20:12:56.401Z,5.03
2019-01-29T20:15:24.993Z,5.13
2019-01-29T20:17:54.556Z,5.73
2019-01-29T20:20:32.869Z,4.87
2019-01-29T20:23:07.690Z,5.47
2019-01-29T20:25:32.485Z,5.30
2019-01-29T20:28:00.784Z,5.40
2019-01-29T20:30:30.971Z,5.07
2019-01-29T20:33:05.248Z,6.43
2019-01-29T20:35:35.529Z,4.90
2019-01-29T20:38:04.285Z,4.70
2019-01-29T20:40:32.787Z,4.33
2019-01-29T20:43:01.580Z,4.63
2019-01-29T20:45:30.881Z,4.00
2019-01-29T20:48:17.894Z,5.07
2019-01-29T20:50:46.448Z,3.97
2019-01-29T20:53:16.857Z,4.37
2019-01-29T20:55:46.351Z,3.97
2019-01-29T20:58:14.688Z,3.93
2019-01-29T21:00:42.856Z,4.00
2019-01-29T21:03:11.163Z,4.60
2019-01-29T21:05:39.869Z,4.17
2019-01-29T21:08:08.774Z,4.40
2019-01-29T21:10:37.375Z,4.33
2019-01-29T21:13:05.783Z,4.97
2019-01-29T21:15:38.644Z,5.23
2019-01-29T21:18:06.751Z,5.03
2019-01-29T21:20:35.246Z,5.57
2019-01-29T21:23:06.565Z,6.23
2019-01-29T21:25:36.343Z,6.53
2019-01-29T21:28:04.717Z,6.10
2019-01-29T21:30:44.144Z,5.90
2019-01-29T21:33:13.222Z,5.90
2019-01-29T21:35:41.657Z,6.20
2019-01-29T21:38:10.228Z,5.90
2019-01-29T21:40:41.138Z,6.57
2019-01-29T21:43:09.310Z,6.90
2019-01-29T21:45:37.741Z,6.57
2019-01-29T21:48:06.566Z,7.80
2019-01-29T21:50:36.293Z,6.67
2019-01-29T21:53:05.341Z,6.20
2019-01-29T21:55:33.669Z,6.43
2019-01-29T21:58:02.220Z,6.90
2019-01-29T22:00:36.617Z,6.27
2019-01-29T22:03:05.668Z,7.30
2019-01-29T22:05:34.797Z,7.13
2019-01-29T22:08:03.768Z,7.17
2019-01-29T22:10:32.244Z,8.00
2019-01-29T22:13:00.513Z,8.50
2019-01-29T22:15:29.443Z,7.23
2019-01-29T22:17:58.091Z,7.87
2019-01-29T22:20:26.403Z,8.00
2019-01-29T22:22:54.582Z,9.00
2019-01-29T22:25:23.715Z,8.10
2019-01-29T22:27:53.728Z,8.40
2019-01-29T22:30:29.015Z,8.83
2019-01-29T22:32:57.256Z,8.63
2019-01-29T22:35:26.549Z,10.30
2019-01-29T22:37:55.176Z,10.57
2019-01-29T22:40:24.365Z,11.00
2019-01-29T22:42:53.909Z,11.43
2019-01-29T22:45:22.573Z,10.50
2019-01-29T22:47:51.635Z,10.77
2019-01-29T22:50:22.515Z,10.63
2019-01-29T22:52:50.786Z,10.67
2019-01-29T22:55:19.925Z,10.77
2019-01-29T22:57:48.934Z,11.37
2019-01-29T23:00:42.830Z,11.07
2019-01-29T23:03:12.255Z,12.10
2019-01-29T23:05:41.327Z,12.10
2019-01-29T23:08:09.833Z,11.73
2019-01-29T23:10:38.709Z,12.27
2019-01-29T23:13:07.389Z,13.13
2019-01-29T23:18:31.685Z,14.23
2019-01-29T23:21:02.722Z,13.87
2019-01-29T23:23:31.246Z,13.43
2019-01-29T23:26:00.586Z,13.67
2019-01-29T23:28:28.805Z,14.50
2019-01-29T23:30:57.618Z,15.13
2019-01-29T23:33:25.692Z,12.90
2019-01-29T23:35:54.935Z,15.43
2019-01-29T23:38:27.451Z,15.07
2019-01-29T23:40:55.775Z,14.80
2019-01-29T23:43:24.016Z,14.80
2019-01-29T23:45:52.300Z,14.63
2019-01-29T23:48:22.277Z,15.93
2019-01-29T23:50:51.594Z,14.60
2019-01-29T23:53:20.277Z,15.97
2019-01-29T23:55:48.965Z,15.43
2019-01-29T23:58:19.085Z,14.37
